Oelwein, IA (50662)

17:00 CDT le 20 septembre 2014 (GMT -0500)
Maplewood Dr | Change Station
CLOSE
Current Station
Stations météorologiques personnelles
Location: Oelwein, IA
Altitude: 1135 ft
Stations météo à proximité

Alt. 1135 ft 42.69 °N, 91.91 °W | Updated 6 seconds ago

Ciel dégagé
Ciel dégagé
75.4 ° F
Paraît 77 ° F
N
5.4
Vent Variable Vent de NO
Gusts 6.9 mph

Aujourd'hui
Haut(e) -- | Bas -- ° F
--% Risque de précip.
Hier
Haut(e) -- | Bas -- ° F
Precip. -- pouce
6:52 AM 7:08 PM
Lune descendante, 10% visible
Pression 29.81 pouce
Visibilité 10.0 Miles terrestres
Nuages Ciel dégagé
indice de chaleur 77 ° F
Point de rosée 64 ° F
Humidité 69%
Précipitations 0.36 pouce
Profondeur de la couche neigeuse Non disponible.
UV 2 sur 12
Pollen 3.20 sur 12
Qualité de l'air Non disponible.
Flu Activity Non disponible.
METAR KOLZ 202135Z AUTO 29013G19KT 10SM CLR 27/14 A2981 RMK AO2

More Conditions Fewer Conditions

Pression 29.81 pouce
Visibilité 10.0 Miles terrestres
Nuages Ciel dégagé
indice de chaleur 77 ° F
Point de rosée 64 ° F
Humidité 69%
Précipitations 0.36 pouce
Profondeur de la couche neigeuse Non disponible.
UV 2 sur 12
Pollen 3.20 sur 12
Qualité de l'air Non disponible.
Flu Activity Non disponible.
METAR KOLZ 202135Z AUTO 29013G19KT 10SM CLR 27/14 A2981 RMK AO2

More Conditions Fewer Conditions

10-Day Weather Forecast

Almanac

Astronomie

Sep. 20, 2014 Lever Coucher
Temps réel 06:52 CDT 19:08 CDT
Crépuscule civil 06:24 CDT 19:36 CDT
Crépuscule nautique 05:51 CDT 20:09 CDT
Crépuscule astronomique 05:17 CDT 20:43 CDT
Lune 03:28 CDT 17:15 CDT
Durée de lumière visible 13h 12m
Longueur du jour
12h 15m
Tomorrow will be 2m 52s shorter.
Lune descendante, 10% of the Moon is Illuminated
Aujourd'hui
Lune descendante
Sep 24
Nouveau
Oct 1
Premier quartier
Oct 8
Pleine lune
Oct 15
Dernier quartier

Extrêmes aujourd'hui

State Highs State Lows

Community

WunderPhotos

Upload Photos

1,754,966 Photos téléchargées !

WunderBlogs® & News

Nearby

Épaisseur de neige

Station Depth Altitude
Pas de nouvelles chutes de neige

Activité sismique

Ville Distance Mag. Time & Date
No recent earthquake activity has been reported nearby.
Minimum magnitude displayed is 2.5.

Températures des eaux côtières

Lieu Température
Aucun rapport de station

Stations météo à proximité